sensor_id;sensor_type;location;lat;lon;timestamp;pressure;altitude;pressure_sealevel;temperature;humidity
31403;BME280;18039;52.188;21.024;2022-08-25T00:01:37;75287.69;;;-141.45;77.51
31403;BME280;18039;52.188;21.024;2022-08-25T00:04:08;75299.84;;;-141.45;77.75
31403;BME280;18039;52.188;21.024;2022-08-25T00:06:41;75291.75;;;-141.45;77.72
31403;BME280;18039;52.188;21.024;2022-08-25T00:09:10;75291.75;;;-141.45;78.17
31403;BME280;18039;52.188;21.024;2022-08-25T00:11:38;75291.75;;;-141.45;78.31
31403;BME280;18039;52.188;21.024;2022-08-25T00:14:09;75287.69;;;-141.45;78.43
31403;BME280;18039;52.188;21.024;2022-08-25T00:16:37;75287.69;;;-141.45;78.50
31403;BME280;18039;52.188;21.024;2022-08-25T00:19:09;75275.53;;;-141.45;78.16
31403;BME280;18039;52.188;21.024;2022-08-25T00:21:36;75271.47;;;-141.45;78.28
31403;BME280;18039;52.188;21.024;2022-08-25T00:24:04;75271.47;;;-141.45;78.48
31403;BME280;18039;52.188;21.024;2022-08-25T00:26:31;75275.53;;;-141.45;78.52
31403;BME280;18039;52.188;21.024;2022-08-25T00:28:58;75271.47;;;-141.45;78.65
31403;BME280;18039;52.188;21.024;2022-08-25T00:31:28;75263.38;;;-141.45;78.81
31403;BME280;18039;52.188;21.024;2022-08-25T00:34:11;75259.31;;;-141.45;79.04
31403;BME280;18039;52.188;21.024;2022-08-25T00:36:39;75247.16;;;-141.45;79.15
31403;BME280;18039;52.188;21.024;2022-08-25T00:39:08;75235.00;;;-141.45;78.95
31403;BME280;18039;52.188;21.024;2022-08-25T00:41:37;75235.00;;;-141.45;78.90
31403;BME280;18039;52.188;21.024;2022-08-25T00:44:07;75232.97;;;-141.45;79.20
31403;BME280;18039;52.188;21.024;2022-08-25T00:46:45;75230.94;;;-141.45;79.02
31403;BME280;18039;52.188;21.024;2022-08-25T00:49:17;75230.94;;;-141.45;79.18
31403;BME280;18039;52.188;21.024;2022-08-25T00:54:28;75230.94;;;-141.45;79.70
31403;BME280;18039;52.188;21.024;2022-08-25T00:56:57;75224.88;;;-141.45;79.64
31403;BME280;18039;52.188;21.024;2022-08-25T00:59:25;75226.91;;;-141.45;80.07
31403;BME280;18039;52.188;21.024;2022-08-25T01:01:53;75230.94;;;-141.45;80.18
31403;BME280;18039;52.188;21.024;2022-08-25T01:04:21;75230.94;;;-141.45;80.36
31403;BME280;18039;52.188;21.024;2022-08-25T01:06:48;75247.16;;;-141.45;80.58
31403;BME280;18039;52.188;21.024;2022-08-25T01:09:16;75247.16;;;-141.45;81.02
31403;BME280;18039;52.188;21.024;2022-08-25T01:11:45;75251.22;;;-141.45;81.25
31403;BME280;18039;52.188;21.024;2022-08-25T01:14:15;75253.25;;;-141.45;81.48
31403;BME280;18039;52.188;21.024;2022-08-25T01:16:43;75251.22;;;-141.45;81.50
31403;BME280;18039;52.188;21.024;2022-08-25T01:19:14;75255.25;;;-141.45;81.70
31403;BME280;18039;52.188;21.024;2022-08-25T01:21:49;75249.19;;;-141.45;81.67
31403;BME280;18039;52.188;21.024;2022-08-25T01:26:55;75251.22;;;-141.45;82.03
31403;BME280;18039;52.188;21.024;2022-08-25T01:29:24;75251.22;;;-141.45;82.13
31403;BME280;18039;52.188;21.024;2022-08-25T01:31:57;75251.22;;;-141.45;82.14
31403;BME280;18039;52.188;21.024;2022-08-25T01:34:26;75259.31;;;-141.45;82.18
31403;BME280;18039;52.188;21.024;2022-08-25T01:36:55;75255.25;;;-141.45;82.39
31403;BME280;18039;52.188;21.024;2022-08-25T01:39:22;75255.25;;;-141.45;82.61
31403;BME280;18039;52.188;21.024;2022-08-25T01:44:31;75263.38;;;-141.45;82.80
31403;BME280;18039;52.188;21.024;2022-08-25T01:47:00;75259.31;;;-141.45;83.07
31403;BME280;18039;52.188;21.024;2022-08-25T01:49:28;75267.44;;;-141.45;83.04
31403;BME280;18039;52.188;21.024;2022-08-25T01:52:00;75259.31;;;-141.45;83.35
31403;BME280;18039;52.188;21.024;2022-08-25T01:54:27;75261.34;;;-141.45;83.44
31403;BME280;18039;52.188;21.024;2022-08-25T01:56:54;75267.44;;;-141.45;83.67
31403;BME280;18039;52.188;21.024;2022-08-25T01:59:21;75269.44;;;-141.45;83.69
31403;BME280;18039;52.188;21.024;2022-08-25T02:01:50;75269.44;;;-141.45;84.04
31403;BME280;18039;52.188;21.024;2022-08-25T02:04:28;75267.44;;;-141.45;84.07
31403;BME280;18039;52.188;21.024;2022-08-25T02:07:00;75271.47;;;-141.45;84.18
31403;BME280;18039;52.188;21.024;2022-08-25T02:09:27;75275.53;;;-141.45;84.48
31403;BME280;18039;52.188;21.024;2022-08-25T02:11:55;75269.44;;;-141.45;84.66
31403;BME280;18039;52.188;21.024;2022-08-25T02:14:22;75271.47;;;-141.45;84.71
31403;BME280;18039;52.188;21.024;2022-08-25T02:16:51;75279.59;;;-141.45;84.85
31403;BME280;18039;52.188;21.024;2022-08-25T02:19:21;75271.47;;;-141.45;85.09
31403;BME280;18039;52.188;21.024;2022-08-25T02:21:49;75271.47;;;-141.45;85.15
31403;BME280;18039;52.188;21.024;2022-08-25T02:24:17;75275.53;;;-141.45;85.16
31403;BME280;18039;52.188;21.024;2022-08-25T02:26:44;75271.47;;;-141.45;85.34
31403;BME280;18039;52.188;21.024;2022-08-25T02:29:12;75275.53;;;-141.45;85.50
31403;BME280;18039;52.188;21.024;2022-08-25T02:31:39;75275.53;;;-141.45;85.40
31403;BME280;18039;52.188;21.024;2022-08-25T02:34:07;75271.47;;;-141.45;85.66
31403;BME280;18039;52.188;21.024;2022-08-25T02:36:35;75269.44;;;-141.45;85.64
31403;BME280;18039;52.188;21.024;2022-08-25T02:39:04;75267.44;;;-141.45;85.66
31403;BME280;18039;52.188;21.024;2022-08-25T02:41:32;75265.41;;;-141.45;85.68
31403;BME280;18039;52.188;21.024;2022-08-25T02:44:02;75275.53;;;-141.45;85.84
31403;BME280;18039;52.188;21.024;2022-08-25T02:46:30;75277.56;;;-141.45;85.91
31403;BME280;18039;52.188;21.024;2022-08-25T02:48:57;75279.59;;;-141.45;85.97
31403;BME280;18039;52.188;21.024;2022-08-25T02:51:26;75277.56;;;-141.45;86.14
31403;BME280;18039;52.188;21.024;2022-08-25T02:53:57;75283.63;;;-141.45;86.32
31403;BME280;18039;52.188;21.024;2022-08-25T02:56:25;75291.75;;;-141.45;86.28
31403;BME280;18039;52.188;21.024;2022-08-25T02:58:53;75295.78;;;-141.45;86.34
31403;BME280;18039;52.188;21.024;2022-08-25T03:01:20;75283.63;;;-141.45;86.25
31403;BME280;18039;52.188;21.024;2022-08-25T03:03:55;75291.75;;;-141.45;86.34
31403;BME280;18039;52.188;21.024;2022-08-25T03:06:22;75295.78;;;-141.45;86.50
31403;BME280;18039;52.188;21.024;2022-08-25T03:08:51;75291.75;;;-141.45;86.58
31403;BME280;18039;52.188;21.024;2022-08-25T03:11:19;75293.78;;;-141.45;86.65
31403;BME280;18039;52.188;21.024;2022-08-25T03:13:47;75287.69;;;-141.45;86.63
31403;BME280;18039;52.188;21.024;2022-08-25T03:16:17;75295.78;;;-141.45;86.74
31403;BME280;18039;52.188;21.024;2022-08-25T03:18:45;75291.75;;;-141.45;86.88
31403;BME280;18039;52.188;21.024;2022-08-25T03:21:13;75287.69;;;-141.45;86.72
31403;BME280;18039;52.188;21.024;2022-08-25T03:23:42;75287.69;;;-141.45;86.71
31403;BME280;18039;52.188;21.024;2022-08-25T03:26:09;75287.69;;;-141.45;86.74
31403;BME280;18039;52.188;21.024;2022-08-25T03:28:55;75287.69;;;-141.45;86.76
31403;BME280;18039;52.188;21.024;2022-08-25T03:31:24;75291.75;;;-141.45;86.86
31403;BME280;18039;52.188;21.024;2022-08-25T03:33:54;75291.75;;;-141.45;86.85
31403;BME280;18039;52.188;21.024;2022-08-25T03:36:21;75289.72;;;-141.45;86.92
31403;BME280;18039;52.188;21.024;2022-08-25T03:38:50;75293.78;;;-141.45;86.97
31403;BME280;18039;52.188;21.024;2022-08-25T03:41:23;75295.78;;;-141.45;87.02
31403;BME280;18039;52.188;21.024;2022-08-25T03:43:55;75303.91;;;-141.45;87.04
31403;BME280;18039;52.188;21.024;2022-08-25T03:46:28;75303.91;;;-141.45;87.10
31403;BME280;18039;52.188;21.024;2022-08-25T03:48:56;75303.91;;;-141.45;87.15
31403;BME280;18039;52.188;21.024;2022-08-25T03:51:26;75295.78;;;-141.45;87.05
31403;BME280;18039;52.188;21.024;2022-08-25T03:53:54;75295.78;;;-141.45;86.90
31403;BME280;18039;52.188;21.024;2022-08-25T03:56:22;75299.84;;;-141.45;86.97
31403;BME280;18039;52.188;21.024;2022-08-25T03:58:50;75295.78;;;-141.45;86.85
31403;BME280;18039;52.188;21.024;2022-08-25T04:01:17;75297.81;;;-141.45;86.76
31403;BME280;18039;52.188;21.024;2022-08-25T04:03:45;75291.75;;;-141.45;86.60
31403;BME280;18039;52.188;21.024;2022-08-25T04:06:14;75299.84;;;-141.45;86.63
31403;BME280;18039;52.188;21.024;2022-08-25T04:08:42;75289.72;;;-141.45;86.83
31403;BME280;18039;52.188;21.024;2022-08-25T04:11:13;75291.75;;;-141.45;86.71
31403;BME280;18039;52.188;21.024;2022-08-25T04:13:41;75287.69;;;-141.45;86.61
31403;BME280;18039;52.188;21.024;2022-08-25T04:16:19;75293.78;;;-141.45;86.66
31403;BME280;18039;52.188;21.024;2022-08-25T04:18:48;75291.75;;;-141.45;86.56
31403;BME280;18039;52.188;21.024;2022-08-25T04:21:16;75289.72;;;-141.45;86.58
31403;BME280;18039;52.188;21.024;2022-08-25T04:23:45;75291.75;;;-141.45;86.44
31403;BME280;18039;52.188;21.024;2022-08-25T04:26:20;75283.63;;;-141.45;86.59
31403;BME280;18039;52.188;21.024;2022-08-25T04:28:48;75283.63;;;-141.45;86.48
31403;BME280;18039;52.188;21.024;2022-08-25T04:31:17;75281.59;;;-141.45;86.18
31403;BME280;18039;52.188;21.024;2022-08-25T04:33:45;75279.59;;;-141.45;86.39
31403;BME280;18039;52.188;21.024;2022-08-25T04:36:16;75275.53;;;-141.45;86.20
31403;BME280;18039;52.188;21.024;2022-08-25T04:38:45;75271.47;;;-141.45;85.82
31403;BME280;18039;52.188;21.024;2022-08-25T04:41:14;75269.44;;;-141.45;85.52
31403;BME280;18039;52.188;21.024;2022-08-25T04:43:42;75255.25;;;-141.45;85.47
31403;BME280;18039;52.188;21.024;2022-08-25T04:46:19;75251.22;;;-141.45;85.05
31403;BME280;18039;52.188;21.024;2022-08-25T04:48:48;75243.09;;;-141.45;84.98
31403;BME280;18039;52.188;21.024;2022-08-25T04:51:17;75235.00;;;-141.45;84.04
31403;BME280;18039;52.188;21.024;2022-08-25T04:53:45;75230.94;;;-141.45;84.15
31403;BME280;18039;52.188;21.024;2022-08-25T04:56:15;75235.00;;;-141.45;83.88
31403;BME280;18039;52.188;21.024;2022-08-25T04:58:43;75226.91;;;-141.45;83.02
31403;BME280;18039;52.188;21.024;2022-08-25T05:01:16;75222.84;;;-141.45;82.64
31403;BME280;18039;52.188;21.024;2022-08-25T05:03:44;75218.78;;;-141.45;82.58
31403;BME280;18039;52.188;21.024;2022-08-25T05:06:12;75196.50;;;-141.45;82.25
31403;BME280;18039;52.188;21.024;2022-08-25T05:08:42;75186.38;;;-141.45;82.02
31403;BME280;18039;52.188;21.024;2022-08-25T05:11:14;75190.44;;;-141.45;81.61
31403;BME280;18039;52.188;21.024;2022-08-25T05:13:44;75174.22;;;-141.45;80.20
31403;BME280;18039;52.188;21.024;2022-08-25T05:16:18;75162.06;;;-141.45;79.23
31403;BME280;18039;52.188;21.024;2022-08-25T05:18:46;75166.09;;;-141.45;79.13
31403;BME280;18039;52.188;21.024;2022-08-25T05:21:20;75174.22;;;-141.45;79.22
31403;BME280;18039;52.188;21.024;2022-08-25T05:23:48;75141.78;;;-141.45;79.12
31403;BME280;18039;52.188;21.024;2022-08-25T05:26:18;75139.78;;;-141.45;78.15
31403;BME280;18039;52.188;21.024;2022-08-25T05:28:52;75141.78;;;-141.45;77.81
31403;BME280;18039;52.188;21.024;2022-08-25T05:31:21;75137.75;;;-141.45;77.70
31403;BME280;18039;52.188;21.024;2022-08-25T05:33:49;75133.69;;;-141.45;77.27
31403;BME280;18039;52.188;21.024;2022-08-25T05:36:18;75141.78;;;-141.45;76.96
31403;BME280;18039;52.188;21.024;2022-08-25T05:38:46;75113.44;;;-141.45;76.16
31403;BME280;18039;52.188;21.024;2022-08-25T05:41:18;75101.28;;;-141.45;75.79
31403;BME280;18039;52.188;21.024;2022-08-25T05:43:47;75093.16;;;-141.45;75.44
31403;BME280;18039;52.188;21.024;2022-08-25T05:46:17;75089.13;;;-141.45;74.31
31403;BME280;18039;52.188;21.024;2022-08-25T05:48:45;75101.28;;;-141.45;73.91
31403;BME280;18039;52.188;21.024;2022-08-25T05:51:13;75091.13;;;-141.45;74.08
31403;BME280;18039;52.188;21.024;2022-08-25T05:53:44;75081.00;;;-141.45;74.25
31403;BME280;18039;52.188;21.024;2022-08-25T05:56:12;75068.84;;;-141.45;73.83
31403;BME280;18039;52.188;21.024;2022-08-25T05:58:40;75068.84;;;-141.45;72.57
31403;BME280;18039;52.188;21.024;2022-08-25T06:01:09;75064.81;;;-141.45;72.45
31403;BME280;18039;52.188;21.024;2022-08-25T06:03:55;75060.75;;;-141.45;71.44
31403;BME280;18039;52.188;21.024;2022-08-25T06:06:23;75050.63;;;-141.45;72.00
31403;BME280;18039;52.188;21.024;2022-08-25T06:08:50;75042.50;;;-141.45;72.02
31403;BME280;18039;52.188;21.024;2022-08-25T06:11:18;75036.44;;;-141.45;72.04
31403;BME280;18039;52.188;21.024;2022-08-25T06:13:45;75032.38;;;-141.45;70.95
31403;BME280;18039;52.188;21.024;2022-08-25T06:16:12;75028.31;;;-141.45;70.90
31403;BME280;18039;52.188;21.024;2022-08-25T06:18:39;75018.19;;;-141.45;70.91
31403;BME280;18039;52.188;21.024;2022-08-25T06:21:09;75004.00;;;-141.45;70.89
31403;BME280;18039;52.188;21.024;2022-08-25T06:23:37;74995.91;;;-141.45;70.58
31403;BME280;18039;52.188;21.024;2022-08-25T06:26:04;74991.84;;;-141.45;70.59
31403;BME280;18039;52.188;21.024;2022-08-25T06:28:32;74985.78;;;-141.45;69.89
31403;BME280;18039;52.188;21.024;2022-08-25T06:31:00;74971.59;;;-141.45;69.75
31403;BME280;18039;52.188;21.024;2022-08-25T06:33:28;74963.50;;;-141.45;69.22
31403;BME280;18039;52.188;21.024;2022-08-25T06:35:55;74951.34;;;-141.45;69.13
31403;BME280;18039;52.188;21.024;2022-08-25T06:38:23;74943.22;;;-141.45;67.70
31403;BME280;18039;52.188;21.024;2022-08-25T06:40:50;74935.13;;;-141.45;67.15
31403;BME280;18039;52.188;21.024;2022-08-25T06:43:19;74931.06;;;-141.45;67.01
31403;BME280;18039;52.188;21.024;2022-08-25T06:45:46;74918.91;;;-141.45;67.36
31403;BME280;18039;52.188;21.024;2022-08-25T06:48:15;74910.81;;;-141.45;66.99
31403;BME280;18039;52.188;21.024;2022-08-25T06:50:42;74898.66;;;-141.45;66.25
31403;BME280;18039;52.188;21.024;2022-08-25T06:53:10;74890.56;;;-141.45;66.63
31403;BME280;18039;52.188;21.024;2022-08-25T06:55:38;74882.44;;;-141.45;66.88
31403;BME280;18039;52.188;21.024;2022-08-25T06:58:06;74878.41;;;-141.45;66.07
31403;BME280;18039;52.188;21.024;2022-08-25T07:00:36;74870.28;;;-141.45;66.21
31403;BME280;18039;52.188;21.024;2022-08-25T07:03:03;74854.09;;;-141.45;65.83
31403;BME280;18039;52.188;21.024;2022-08-25T07:05:32;74848.00;;;-141.45;65.28
31403;BME280;18039;52.188;21.024;2022-08-25T07:08:09;74837.88;;;-141.45;64.54
31403;BME280;18039;52.188;21.024;2022-08-25T07:10:38;74831.78;;;-141.45;64.77
31403;BME280;18039;52.188;21.024;2022-08-25T07:13:05;74821.66;;;-141.45;64.82
31403;BME280;18039;52.188;21.024;2022-08-25T07:15:37;74801.41;;;-141.45;64.58
31403;BME280;18039;52.188;21.024;2022-08-25T07:18:05;74797.34;;;-141.45;63.62
31403;BME280;18039;52.188;21.024;2022-08-25T07:20:34;74787.22;;;-141.45;63.38
31403;BME280;18039;52.188;21.024;2022-08-25T07:23:02;74777.09;;;-141.45;63.47
31403;BME280;18039;52.188;21.024;2022-08-25T07:25:29;74756.84;;;-141.45;63.22
31403;BME280;18039;52.188;21.024;2022-08-25T07:27:57;74752.78;;;-141.45;62.61
31403;BME280;18039;52.188;21.024;2022-08-25T07:30:25;74740.63;;;-141.45;61.92
31403;BME280;18039;52.188;21.024;2022-08-25T07:32:52;74734.53;;;-141.45;60.47
31403;BME280;18039;52.188;21.024;2022-08-25T07:35:21;74724.41;;;-141.45;60.12
31403;BME280;18039;52.188;21.024;2022-08-25T07:37:53;74724.41;;;-141.45;60.53
31403;BME280;18039;52.188;21.024;2022-08-25T07:40:32;74704.16;;;-141.45;60.27
31403;BME280;18039;52.188;21.024;2022-08-25T07:43:04;74696.06;;;-141.45;60.09
31403;BME280;18039;52.188;21.024;2022-08-25T07:45:36;74687.94;;;-141.45;59.17
31403;BME280;18039;52.188;21.024;2022-08-25T07:48:16;74673.78;;;-141.45;58.47
31403;BME280;18039;52.188;21.024;2022-08-25T07:50:46;74667.69;;;-141.45;58.47
31403;BME280;18039;52.188;21.024;2022-08-25T07:53:15;74659.59;;;-141.45;58.21
31403;BME280;18039;52.188;21.024;2022-08-25T07:55:42;74651.47;;;-141.45;57.29
31403;BME280;18039;52.188;21.024;2022-08-25T07:58:13;74651.47;;;-141.45;57.27
31403;BME280;18039;52.188;21.024;2022-08-25T08:00:41;74645.41;;;-141.45;57.35
31403;BME280;18039;52.188;21.024;2022-08-25T08:03:08;74633.25;;;-141.45;57.42
31403;BME280;18039;52.188;21.024;2022-08-25T08:05:56;74619.06;;;-141.45;57.30
31403;BME280;18039;52.188;21.024;2022-08-25T08:08:23;74617.03;;;-141.45;57.67
31403;BME280;18039;52.188;21.024;2022-08-25T08:10:50;74617.03;;;-141.45;57.84
31403;BME280;18039;52.188;21.024;2022-08-25T08:13:35;74617.03;;;-141.45;57.85
31403;BME280;18039;52.188;21.024;2022-08-25T08:16:09;74615.00;;;-141.45;57.41
31403;BME280;18039;52.188;21.024;2022-08-25T08:18:39;74615.00;;;-141.45;57.02
31403;BME280;18039;52.188;21.024;2022-08-25T08:21:12;74617.03;;;-141.45;56.42
31403;BME280;18039;52.188;21.024;2022-08-25T08:23:46;74610.97;;;-141.45;56.05
31403;BME280;18039;52.188;21.024;2022-08-25T08:26:15;74615.00;;;-141.45;54.42
31403;BME280;18039;52.188;21.024;2022-08-25T08:28:43;74606.91;;;-141.45;54.02
31403;BME280;18039;52.188;21.024;2022-08-25T08:31:22;74602.84;;;-141.45;53.23
31403;BME280;18039;52.188;21.024;2022-08-25T08:33:53;74602.84;;;-141.45;53.42
31403;BME280;18039;52.188;21.024;2022-08-25T08:36:22;74598.81;;;-141.45;52.82
31403;BME280;18039;52.188;21.024;2022-08-25T08:38:51;74610.97;;;-141.45;52.76
31403;BME280;18039;52.188;21.024;2022-08-25T08:47:22;74598.81;;;-141.45;53.42
31403;BME280;18039;52.188;21.024;2022-08-25T08:50:22;74590.69;;;-141.45;50.63
31403;BME280;18039;52.188;21.024;2022-08-25T08:53:21;74578.53;;;-141.45;50.71
31403;BME280;18039;52.188;21.024;2022-08-25T08:55:53;74570.44;;;-141.45;50.36
31403;BME280;18039;52.188;21.024;2022-08-25T09:00:55;74538.03;;;-141.45;46.97
31403;BME280;18039;52.188;21.024;2022-08-25T09:03:46;74517.78;;;-141.45;46.89
31403;BME280;18039;52.188;21.024;2022-08-25T09:06:35;74517.78;;;-141.45;47.04
31403;BME280;18039;52.188;21.024;2022-08-25T09:09:04;74513.72;;;-141.45;47.00
31403;BME280;18039;52.188;21.024;2022-08-25T09:11:39;74497.50;;;-141.45;45.89
31403;BME280;18039;52.188;21.024;2022-08-25T09:17:03;74479.28;;;-141.45;46.93
31403;BME280;18039;52.188;21.024;2022-08-25T09:19:36;74469.16;;;-141.45;46.58
31403;BME280;18039;52.188;21.024;2022-08-25T09:25:50;74446.88;;;-141.45;45.77
31403;BME280;18039;52.188;21.024;2022-08-25T09:31:28;74457.00;;;-141.45;47.25
31403;BME280;18039;52.188;21.024;2022-08-25T09:34:01;74446.88;;;-141.45;47.55
31403;BME280;18039;52.188;21.024;2022-08-25T09:36:29;74436.72;;;-141.45;47.06
31403;BME280;18039;52.188;21.024;2022-08-25T09:39:04;74430.66;;;-141.45;47.17
31403;BME280;18039;52.188;21.024;2022-08-25T09:46:59;74394.19;;;-141.45;46.58
31403;BME280;18039;52.188;21.024;2022-08-25T09:49:42;74378.00;;;-141.45;45.56
31403;BME280;18039;52.188;21.024;2022-08-25T09:57:47;74355.69;;;-141.45;45.12
31403;BME280;18039;52.188;21.024;2022-08-25T10:00:28;74347.59;;;-141.45;44.39
31403;BME280;18039;52.188;21.024;2022-08-25T10:03:06;74339.50;;;-141.45;45.09
31403;BME280;18039;52.188;21.024;2022-08-25T10:08:22;74327.34;;;-141.45;42.84
31403;BME280;18039;52.188;21.024;2022-08-25T10:10:55;74319.25;;;-141.45;42.54
31403;BME280;18039;52.188;21.024;2022-08-25T10:13:42;74307.09;;;-141.45;41.64
31403;BME280;18039;52.188;21.024;2022-08-25T10:16:27;74307.09;;;-141.45;42.36
31403;BME280;18039;52.188;21.024;2022-08-25T10:19:27;74286.81;;;-141.45;40.44
31403;BME280;18039;52.188;21.024;2022-08-25T10:22:13;74266.56;;;-141.45;38.73
31403;BME280;18039;52.188;21.024;2022-08-25T10:24:47;74258.47;;;-141.45;38.94
31403;BME280;18039;52.188;21.024;2022-08-25T10:27:37;74260.50;;;-141.45;38.22
31403;BME280;18039;52.188;21.024;2022-08-25T10:30:27;74262.53;;;-141.45;37.12
31403;BME280;18039;52.188;21.024;2022-08-25T10:35:58;74254.41;;;-141.45;38.72
31403;BME280;18039;52.188;21.024;2022-08-25T10:46:44;74209.84;;;-141.45;36.45
31403;BME280;18039;52.188;21.024;2022-08-25T10:49:18;74193.66;;;-141.45;36.75
31403;BME280;18039;52.188;21.024;2022-08-25T10:52:00;74165.28;;;-141.45;35.59
31403;BME280;18039;52.188;21.024;2022-08-25T10:55:04;74153.13;;;-141.45;35.98
31403;BME280;18039;52.188;21.024;2022-08-25T10:57:55;74157.19;;;-141.45;35.58
31403;BME280;18039;52.188;21.024;2022-08-25T11:00:31;74151.09;;;-141.45;34.78
31403;BME280;18039;52.188;21.024;2022-08-25T11:05:53;74136.94;;;-141.45;33.72
31403;BME280;18039;52.188;21.024;2022-08-25T11:11:09;74130.84;;;-141.45;34.56
31403;BME280;18039;52.188;21.024;2022-08-25T11:16:13;74110.59;;;-141.45;34.04
31403;BME280;18039;52.188;21.024;2022-08-25T11:18:50;74100.47;;;-141.45;33.17
31403;BME280;18039;52.188;21.024;2022-08-25T11:21:23;74096.41;;;-141.45;32.38
31403;BME280;18039;52.188;21.024;2022-08-25T11:23:57;74088.31;;;-141.45;32.30
31403;BME280;18039;52.188;21.024;2022-08-25T11:26:31;74096.41;;;-141.45;31.97
31403;BME280;18039;52.188;21.024;2022-08-25T11:29:11;74096.41;;;-141.45;32.29
31403;BME280;18039;52.188;21.024;2022-08-25T11:31:42;74072.09;;;-141.45;32.44
31403;BME280;18039;52.188;21.024;2022-08-25T11:34:13;74080.22;;;-141.45;32.82
31403;BME280;18039;52.188;21.024;2022-08-25T11:36:54;74074.13;;;-141.45;32.84
31403;BME280;18039;52.188;21.024;2022-08-25T11:39:33;74072.09;;;-141.45;31.85
31403;BME280;18039;52.188;21.024;2022-08-25T11:45:00;74055.91;;;-141.45;31.25
31403;BME280;18039;52.188;21.024;2022-08-25T11:50:26;74031.59;;;-141.45;31.21
31403;BME280;18039;52.188;21.024;2022-08-25T11:52:59;74031.59;;;-141.45;30.91
31403;BME280;18039;52.188;21.024;2022-08-25T11:55:50;74027.53;;;-141.45;31.06
31403;BME280;18039;52.188;21.024;2022-08-25T12:01:04;74039.69;;;-141.45;30.81
31403;BME280;18039;52.188;21.024;2022-08-25T12:08:51;74025.50;;;-141.45;30.62
31403;BME280;18039;52.188;21.024;2022-08-25T12:11:43;74019.44;;;-141.45;30.80
31403;BME280;18039;52.188;21.024;2022-08-25T12:14:15;74013.38;;;-141.45;30.70
31403;BME280;18039;52.188;21.024;2022-08-25T12:24:45;73970.81;;;-141.45;30.48
31403;BME280;18039;52.188;21.024;2022-08-25T12:35:20;73948.53;;;-141.45;30.39
31403;BME280;18039;52.188;21.024;2022-08-25T12:37:55;73922.22;;;-141.45;30.57
31403;BME280;18039;52.188;21.024;2022-08-25T12:40:30;73918.16;;;-141.45;30.17
31403;BME280;18039;52.188;21.024;2022-08-25T12:43:44;73906.00;;;-141.45;30.27
31403;BME280;18039;52.188;21.024;2022-08-25T12:45:54;73910.06;;;-141.45;31.06
31403;BME280;18039;52.188;21.024;2022-08-25T12:51:26;73906.00;;;-141.45;30.88
31403;BME280;18039;52.188;21.024;2022-08-25T12:53:56;73901.97;;;-141.45;30.62
31403;BME280;18039;52.188;21.024;2022-08-25T12:56:40;73895.88;;;-141.45;31.09
31403;BME280;18039;52.188;21.024;2022-08-25T12:59:32;73906.00;;;-141.45;30.80
31403;BME280;18039;52.188;21.024;2022-08-25T13:08:00;73906.00;;;-141.45;30.78
31403;BME280;18039;52.188;21.024;2022-08-25T13:13:33;73910.06;;;-141.45;31.00
31403;BME280;18039;52.188;21.024;2022-08-25T13:16:07;73914.13;;;-141.45;30.78
31403;BME280;18039;52.188;21.024;2022-08-25T13:18:37;73910.06;;;-141.45;30.80
31403;BME280;18039;52.188;21.024;2022-08-25T13:23:48;73897.91;;;-141.45;30.68
31403;BME280;18039;52.188;21.024;2022-08-25T13:26:27;73893.84;;;-141.45;31.47
31403;BME280;18039;52.188;21.024;2022-08-25T13:31:36;73881.69;;;-141.45;31.06
31403;BME280;18039;52.188;21.024;2022-08-25T13:34:16;73869.56;;;-141.45;30.69
31403;BME280;18039;52.188;21.024;2022-08-25T13:36:47;73865.50;;;-141.45;30.68
31403;BME280;18039;52.188;21.024;2022-08-25T13:39:35;73861.44;;;-141.45;30.27
31403;BME280;18039;52.188;21.024;2022-08-25T13:42:21;73857.41;;;-141.45;30.39
31403;BME280;18039;52.188;21.024;2022-08-25T13:44:54;73857.41;;;-141.45;30.87
31403;BME280;18039;52.188;21.024;2022-08-25T13:47:37;73861.44;;;-141.45;30.06
31403;BME280;18039;52.188;21.024;2022-08-25T13:50:16;73857.41;;;-141.45;29.16
31403;BME280;18039;52.188;21.024;2022-08-25T13:55:55;73845.25;;;-141.45;29.21
31403;BME280;18039;52.188;21.024;2022-08-25T13:58:32;73847.28;;;-141.45;28.93
31403;BME280;18039;52.188;21.024;2022-08-25T14:01:19;73849.28;;;-141.45;28.74
31403;BME280;18039;52.188;21.024;2022-08-25T14:04:32;73837.16;;;-141.45;28.47
31403;BME280;18039;52.188;21.024;2022-08-25T14:09:58;73829.03;;;-141.45;28.88
31403;BME280;18039;52.188;21.024;2022-08-25T14:12:49;73825.00;;;-141.45;28.26
31403;BME280;18039;52.188;21.024;2022-08-25T14:17:47;73808.78;;;-141.45;29.12
31403;BME280;18039;52.188;21.024;2022-08-25T14:20:22;73804.75;;;-141.45;28.47
31403;BME280;18039;52.188;21.024;2022-08-25T14:22:58;73800.69;;;-141.45;28.22
31403;BME280;18039;52.188;21.024;2022-08-25T14:25:28;73800.69;;;-141.45;27.45
31403;BME280;18039;52.188;21.024;2022-08-25T14:27:59;73812.84;;;-141.45;27.31
31403;BME280;18039;52.188;21.024;2022-08-25T14:30:42;73808.78;;;-141.45;27.22
31403;BME280;18039;52.188;21.024;2022-08-25T14:33:14;73812.84;;;-141.45;27.02
31403;BME280;18039;52.188;21.024;2022-08-25T14:35:46;73814.88;;;-141.45;27.29
31403;BME280;18039;52.188;21.024;2022-08-25T14:38:14;73822.97;;;-141.45;27.02
31403;BME280;18039;52.188;21.024;2022-08-25T14:40:43;73812.84;;;-141.45;27.40
31403;BME280;18039;52.188;21.024;2022-08-25T14:43:10;73812.84;;;-141.45;27.37
31403;BME280;18039;52.188;21.024;2022-08-25T14:45:41;73812.84;;;-141.45;27.24
31403;BME280;18039;52.188;21.024;2022-08-25T14:48:14;73804.75;;;-141.45;28.01
31403;BME280;18039;52.188;21.024;2022-08-25T14:50:43;73804.75;;;-141.45;28.06